sensor_id;sensor_type;location;lat;lon;timestamp;temperature;humidity
5248;DHT22;2644;52.420;13.580;2022-09-09T00:00:20;14.50;99.90
5248;DHT22;2644;52.420;13.580;2022-09-09T00:01:29;14.50;99.90
5248;DHT22;2644;52.420;13.580;2022-09-09T00:02:35;14.50;99.90
5248;DHT22;2644;52.420;13.580;2022-09-09T00:03:42;14.50;99.90
5248;DHT22;2644;52.420;13.580;2022-09-09T00:04:53;14.50;99.90
5248;DHT22;2644;52.420;13.580;2022-09-09T00:06:06;14.50;99.90
5248;DHT22;2644;52.420;13.580;2022-09-09T00:07:16;14.50;99.90
5248;DHT22;2644;52.420;13.580;2022-09-09T00:08:22;14.50;99.90
5248;DHT22;2644;52.420;13.580;2022-09-09T00:09:29;14.50;99.90
5248;DHT22;2644;52.420;13.580;2022-09-09T00:10:37;14.50;99.90
5248;DHT22;2644;52.420;13.580;2022-09-09T00:11:43;14.50;99.90
5248;DHT22;2644;52.420;13.580;2022-09-09T00:12:55;14.50;99.90
5248;DHT22;2644;52.420;13.580;2022-09-09T00:14:00;14.40;99.90
5248;DHT22;2644;52.420;13.580;2022-09-09T00:15:11;14.40;99.90
5248;DHT22;2644;52.420;13.580;2022-09-09T00:16:17;14.40;99.90
5248;DHT22;2644;52.420;13.580;2022-09-09T00:17:33;14.50;99.90
5248;DHT22;2644;52.420;13.580;2022-09-09T00:18:45;14.40;99.90
5248;DHT22;2644;52.420;13.580;2022-09-09T00:19:53;14.40;99.90
5248;DHT22;2644;52.420;13.580;2022-09-09T00:21:02;14.40;99.90
5248;DHT22;2644;52.420;13.580;2022-09-09T00:22:16;14.40;99.90
5248;DHT22;2644;52.420;13.580;2022-09-09T00:23:24;14.30;99.90
5248;DHT22;2644;52.420;13.580;2022-09-09T00:24:36;14.30;99.90
5248;DHT22;2644;52.420;13.580;2022-09-09T00:25:47;14.30;99.90
5248;DHT22;2644;52.420;13.580;2022-09-09T00:26:57;14.30;99.90
5248;DHT22;2644;52.420;13.580;2022-09-09T00:28:02;14.30;99.90
5248;DHT22;2644;52.420;13.580;2022-09-09T00:29:12;14.30;99.90
5248;DHT22;2644;52.420;13.580;2022-09-09T00:30:18;14.30;99.90
5248;DHT22;2644;52.420;13.580;2022-09-09T00:31:27;14.30;99.90
5248;DHT22;2644;52.420;13.580;2022-09-09T00:32:33;14.30;99.90
5248;DHT22;2644;52.420;13.580;2022-09-09T00:33:39;14.30;99.90
5248;DHT22;2644;52.420;13.580;2022-09-09T00:34:48;14.30;99.90
5248;DHT22;2644;52.420;13.580;2022-09-09T00:35:53;14.30;99.90
5248;DHT22;2644;52.420;13.580;2022-09-09T00:36:57;14.30;99.90
5248;DHT22;2644;52.420;13.580;2022-09-09T00:38:03;14.20;99.90
5248;DHT22;2644;52.420;13.580;2022-09-09T00:39:12;14.20;99.90
5248;DHT22;2644;52.420;13.580;2022-09-09T00:40:23;14.20;99.90
5248;DHT22;2644;52.420;13.580;2022-09-09T00:41:37;14.20;99.90
5248;DHT22;2644;52.420;13.580;2022-09-09T00:42:42;14.20;99.90
5248;DHT22;2644;52.420;13.580;2022-09-09T00:43:54;14.20;99.90
5248;DHT22;2644;52.420;13.580;2022-09-09T00:45:02;14.20;99.90
5248;DHT22;2644;52.420;13.580;2022-09-09T00:47:58;14.20;99.90
5248;DHT22;2644;52.420;13.580;2022-09-09T00:49:15;14.20;99.90
5248;DHT22;2644;52.420;13.580;2022-09-09T00:50:30;14.20;99.90
5248;DHT22;2644;52.420;13.580;2022-09-09T00:51:44;14.10;99.90
5248;DHT22;2644;52.420;13.580;2022-09-09T00:52:55;14.10;99.90
5248;DHT22;2644;52.420;13.580;2022-09-09T00:54:25;14.10;99.90
5248;DHT22;2644;52.420;13.580;2022-09-09T00:55:36;14.10;99.90
5248;DHT22;2644;52.420;13.580;2022-09-09T00:56:47;14.10;99.90
5248;DHT22;2644;52.420;13.580;2022-09-09T00:57:53;14.10;99.90
5248;DHT22;2644;52.420;13.580;2022-09-09T00:59:03;14.10;99.90
5248;DHT22;2644;52.420;13.580;2022-09-09T01:00:27;14.10;99.90
5248;DHT22;2644;52.420;13.580;2022-09-09T01:01:31;14.10;99.90
5248;DHT22;2644;52.420;13.580;2022-09-09T01:02:40;14.10;99.90
5248;DHT22;2644;52.420;13.580;2022-09-09T01:03:51;14.10;99.90
5248;DHT22;2644;52.420;13.580;2022-09-09T01:05:04;14.10;99.90
5248;DHT22;2644;52.420;13.580;2022-09-09T01:06:16;14.10;99.90
5248;DHT22;2644;52.420;13.580;2022-09-09T01:07:20;14.10;99.90
5248;DHT22;2644;52.420;13.580;2022-09-09T01:08:36;14.10;99.90
5248;DHT22;2644;52.420;13.580;2022-09-09T01:09:51;14.10;99.90
5248;DHT22;2644;52.420;13.580;2022-09-09T01:10:54;14.10;99.90
5248;DHT22;2644;52.420;13.580;2022-09-09T01:12:07;14.10;99.90
5248;DHT22;2644;52.420;13.580;2022-09-09T01:13:16;14.10;99.90
5248;DHT22;2644;52.420;13.580;2022-09-09T01:14:32;14.00;99.90
5248;DHT22;2644;52.420;13.580;2022-09-09T01:15:41;14.10;99.90
5248;DHT22;2644;52.420;13.580;2022-09-09T01:16:48;14.00;99.90
5248;DHT22;2644;52.420;13.580;2022-09-09T01:17:58;14.00;99.90
5248;DHT22;2644;52.420;13.580;2022-09-09T01:19:07;14.00;99.90
5248;DHT22;2644;52.420;13.580;2022-09-09T01:20:17;14.00;99.90
5248;DHT22;2644;52.420;13.580;2022-09-09T01:21:32;14.00;99.90
5248;DHT22;2644;52.420;13.580;2022-09-09T01:22:47;14.00;99.90
5248;DHT22;2644;52.420;13.580;2022-09-09T01:24:08;14.00;99.90
5248;DHT22;2644;52.420;13.580;2022-09-09T01:26:09;14.00;99.90
5248;DHT22;2644;52.420;13.580;2022-09-09T01:27:13;14.00;99.90
5248;DHT22;2644;52.420;13.580;2022-09-09T01:28:21;13.90;99.90
5248;DHT22;2644;52.420;13.580;2022-09-09T01:29:26;13.90;99.90
5248;DHT22;2644;52.420;13.580;2022-09-09T01:30:30;13.90;99.90
5248;DHT22;2644;52.420;13.580;2022-09-09T01:31:37;13.90;99.90
5248;DHT22;2644;52.420;13.580;2022-09-09T01:32:43;13.90;99.90
5248;DHT22;2644;52.420;13.580;2022-09-09T01:33:47;13.90;99.90
5248;DHT22;2644;52.420;13.580;2022-09-09T01:34:51;13.90;99.90
5248;DHT22;2644;52.420;13.580;2022-09-09T01:35:59;13.90;99.90
5248;DHT22;2644;52.420;13.580;2022-09-09T01:37:09;13.90;99.90
5248;DHT22;2644;52.420;13.580;2022-09-09T01:38:13;13.90;99.90
5248;DHT22;2644;52.420;13.580;2022-09-09T01:39:17;13.90;99.90
5248;DHT22;2644;52.420;13.580;2022-09-09T01:40:23;13.90;99.90
5248;DHT22;2644;52.420;13.580;2022-09-09T01:41:28;13.80;99.90
5248;DHT22;2644;52.420;13.580;2022-09-09T01:42:38;13.80;99.90
5248;DHT22;2644;52.420;13.580;2022-09-09T01:43:41;13.80;99.90
5248;DHT22;2644;52.420;13.580;2022-09-09T01:44:43;13.80;99.90
5248;DHT22;2644;52.420;13.580;2022-09-09T01:45:48;13.80;99.90
5248;DHT22;2644;52.420;13.580;2022-09-09T01:46:51;13.80;99.90
5248;DHT22;2644;52.420;13.580;2022-09-09T01:47:56;13.80;99.90
5248;DHT22;2644;52.420;13.580;2022-09-09T01:49:14;13.80;99.90
5248;DHT22;2644;52.420;13.580;2022-09-09T01:50:19;13.80;99.90
5248;DHT22;2644;52.420;13.580;2022-09-09T01:51:22;13.80;99.90
5248;DHT22;2644;52.420;13.580;2022-09-09T01:52:26;13.70;99.90
5248;DHT22;2644;52.420;13.580;2022-09-09T01:53:29;13.70;99.90
5248;DHT22;2644;52.420;13.580;2022-09-09T01:54:33;13.70;99.90
5248;DHT22;2644;52.420;13.580;2022-09-09T01:55:44;13.70;99.90
5248;DHT22;2644;52.420;13.580;2022-09-09T01:57:03;13.70;99.90
5248;DHT22;2644;52.420;13.580;2022-09-09T01:58:17;13.70;99.90
5248;DHT22;2644;52.420;13.580;2022-09-09T01:59:40;13.80;99.90
5248;DHT22;2644;52.420;13.580;2022-09-09T02:00:52;13.70;99.90
5248;DHT22;2644;52.420;13.580;2022-09-09T02:02:08;13.70;99.90
5248;DHT22;2644;52.420;13.580;2022-09-09T02:03:21;13.70;99.90
5248;DHT22;2644;52.420;13.580;2022-09-09T02:04:38;13.70;99.90
5248;DHT22;2644;52.420;13.580;2022-09-09T02:05:49;13.70;99.90
5248;DHT22;2644;52.420;13.580;2022-09-09T02:07:00;13.70;99.90
5248;DHT22;2644;52.420;13.580;2022-09-09T02:08:06;13.70;99.90
5248;DHT22;2644;52.420;13.580;2022-09-09T02:09:26;13.70;99.90
5248;DHT22;2644;52.420;13.580;2022-09-09T02:10:33;13.70;99.90
5248;DHT22;2644;52.420;13.580;2022-09-09T02:11:47;13.60;99.90
5248;DHT22;2644;52.420;13.580;2022-09-09T02:13:07;13.70;99.90
5248;DHT22;2644;52.420;13.580;2022-09-09T02:14:14;13.60;99.90
5248;DHT22;2644;52.420;13.580;2022-09-09T02:15:26;13.60;99.90
5248;DHT22;2644;52.420;13.580;2022-09-09T02:16:34;13.60;99.90
5248;DHT22;2644;52.420;13.580;2022-09-09T02:17:40;13.60;99.90
5248;DHT22;2644;52.420;13.580;2022-09-09T02:18:50;13.60;99.90
5248;DHT22;2644;52.420;13.580;2022-09-09T02:20:03;13.60;99.90
5248;DHT22;2644;52.420;13.580;2022-09-09T02:21:16;13.60;99.90
5248;DHT22;2644;52.420;13.580;2022-09-09T02:22:22;13.60;99.90
5248;DHT22;2644;52.420;13.580;2022-09-09T02:23:25;13.60;99.90
5248;DHT22;2644;52.420;13.580;2022-09-09T02:24:33;13.60;99.90
5248;DHT22;2644;52.420;13.580;2022-09-09T02:25:47;13.60;99.90
5248;DHT22;2644;52.420;13.580;2022-09-09T02:26:58;13.60;99.90
5248;DHT22;2644;52.420;13.580;2022-09-09T02:28:06;13.60;99.90
5248;DHT22;2644;52.420;13.580;2022-09-09T02:29:14;13.60;99.90
5248;DHT22;2644;52.420;13.580;2022-09-09T02:30:18;13.60;99.90
5248;DHT22;2644;52.420;13.580;2022-09-09T02:31:33;13.60;99.90
5248;DHT22;2644;52.420;13.580;2022-09-09T02:32:43;13.50;99.90
5248;DHT22;2644;52.420;13.580;2022-09-09T02:33:54;13.50;99.90
5248;DHT22;2644;52.420;13.580;2022-09-09T02:35:03;13.50;99.90
5248;DHT22;2644;52.420;13.580;2022-09-09T02:36:09;13.50;99.90
5248;DHT22;2644;52.420;13.580;2022-09-09T02:37:17;13.50;99.90
5248;DHT22;2644;52.420;13.580;2022-09-09T02:38:26;13.50;99.90
5248;DHT22;2644;52.420;13.580;2022-09-09T02:39:36;13.50;99.90
5248;DHT22;2644;52.420;13.580;2022-09-09T02:40:41;13.50;99.90
5248;DHT22;2644;52.420;13.580;2022-09-09T02:41:45;13.50;99.90
5248;DHT22;2644;52.420;13.580;2022-09-09T02:42:48;13.50;99.90
5248;DHT22;2644;52.420;13.580;2022-09-09T02:43:55;13.50;99.90
5248;DHT22;2644;52.420;13.580;2022-09-09T02:44:59;13.50;99.90
5248;DHT22;2644;52.420;13.580;2022-09-09T02:46:12;13.50;99.90
5248;DHT22;2644;52.420;13.580;2022-09-09T02:47:27;13.50;99.90
5248;DHT22;2644;52.420;13.580;2022-09-09T02:48:45;13.50;99.90
5248;DHT22;2644;52.420;13.580;2022-09-09T02:49:59;13.50;99.90
5248;DHT22;2644;52.420;13.580;2022-09-09T02:51:09;13.50;99.90
5248;DHT22;2644;52.420;13.580;2022-09-09T02:52:15;13.50;99.90
5248;DHT22;2644;52.420;13.580;2022-09-09T02:53:21;13.50;99.90
5248;DHT22;2644;52.420;13.580;2022-09-09T02:54:27;13.50;99.90
5248;DHT22;2644;52.420;13.580;2022-09-09T02:55:38;13.50;99.90
5248;DHT22;2644;52.420;13.580;2022-09-09T02:56:47;13.50;99.90
5248;DHT22;2644;52.420;13.580;2022-09-09T02:57:53;13.50;99.90
5248;DHT22;2644;52.420;13.580;2022-09-09T02:58:58;13.50;99.90
5248;DHT22;2644;52.420;13.580;2022-09-09T03:00:03;13.50;99.90
5248;DHT22;2644;52.420;13.580;2022-09-09T03:01:07;13.50;99.90
5248;DHT22;2644;52.420;13.580;2022-09-09T03:02:11;13.50;99.90
5248;DHT22;2644;52.420;13.580;2022-09-09T03:03:17;13.50;99.90
5248;DHT22;2644;52.420;13.580;2022-09-09T03:04:23;13.50;99.90
5248;DHT22;2644;52.420;13.580;2022-09-09T03:05:26;13.50;99.90
5248;DHT22;2644;52.420;13.580;2022-09-09T03:06:29;13.40;99.90
5248;DHT22;2644;52.420;13.580;2022-09-09T03:07:42;13.40;99.90
5248;DHT22;2644;52.420;13.580;2022-09-09T03:08:45;13.40;99.90
5248;DHT22;2644;52.420;13.580;2022-09-09T03:09:51;13.40;99.90
5248;DHT22;2644;52.420;13.580;2022-09-09T03:10:59;13.40;99.90
5248;DHT22;2644;52.420;13.580;2022-09-09T03:12:05;13.40;99.90
5248;DHT22;2644;52.420;13.580;2022-09-09T03:13:10;13.40;99.90
5248;DHT22;2644;52.420;13.580;2022-09-09T03:14:16;13.40;99.90
5248;DHT22;2644;52.420;13.580;2022-09-09T03:15:23;13.40;99.90
5248;DHT22;2644;52.420;13.580;2022-09-09T03:16:26;13.40;99.90
5248;DHT22;2644;52.420;13.580;2022-09-09T03:17:29;13.40;99.90
5248;DHT22;2644;52.420;13.580;2022-09-09T03:18:32;13.40;99.90
5248;DHT22;2644;52.420;13.580;2022-09-09T03:19:36;13.40;99.90
5248;DHT22;2644;52.420;13.580;2022-09-09T03:20:42;13.30;99.90
5248;DHT22;2644;52.420;13.580;2022-09-09T03:21:45;13.30;99.90
5248;DHT22;2644;52.420;13.580;2022-09-09T03:22:48;13.30;99.90
5248;DHT22;2644;52.420;13.580;2022-09-09T03:23:50;13.30;99.90
5248;DHT22;2644;52.420;13.580;2022-09-09T03:24:53;13.40;99.90
5248;DHT22;2644;52.420;13.580;2022-09-09T03:25:56;13.40;99.90
5248;DHT22;2644;52.420;13.580;2022-09-09T03:27:09;13.30;99.90
5248;DHT22;2644;52.420;13.580;2022-09-09T03:28:13;13.30;99.90
5248;DHT22;2644;52.420;13.580;2022-09-09T03:29:18;13.30;99.90
5248;DHT22;2644;52.420;13.580;2022-09-09T03:30:20;13.30;99.90
5248;DHT22;2644;52.420;13.580;2022-09-09T03:31:24;13.30;99.90
5248;DHT22;2644;52.420;13.580;2022-09-09T03:32:27;13.30;99.90
5248;DHT22;2644;52.420;13.580;2022-09-09T03:33:31;13.30;99.90
5248;DHT22;2644;52.420;13.580;2022-09-09T03:34:34;13.30;99.90
5248;DHT22;2644;52.420;13.580;2022-09-09T03:35:37;13.20;99.90
5248;DHT22;2644;52.420;13.580;2022-09-09T03:36:39;13.30;99.90
5248;DHT22;2644;52.420;13.580;2022-09-09T03:37:43;13.20;99.90
5248;DHT22;2644;52.420;13.580;2022-09-09T03:38:47;13.20;99.90
5248;DHT22;2644;52.420;13.580;2022-09-09T03:39:49;13.20;99.90
5248;DHT22;2644;52.420;13.580;2022-09-09T03:40:55;13.20;99.90
5248;DHT22;2644;52.420;13.580;2022-09-09T03:41:59;13.20;99.90
5248;DHT22;2644;52.420;13.580;2022-09-09T03:43:06;13.20;99.90
5248;DHT22;2644;52.420;13.580;2022-09-09T03:44:08;13.20;99.90
5248;DHT22;2644;52.420;13.580;2022-09-09T03:45:15;13.20;99.90
5248;DHT22;2644;52.420;13.580;2022-09-09T03:46:19;13.20;99.90
5248;DHT22;2644;52.420;13.580;2022-09-09T03:47:21;13.20;99.90
5248;DHT22;2644;52.420;13.580;2022-09-09T03:48:29;13.20;99.90
5248;DHT22;2644;52.420;13.580;2022-09-09T03:49:33;13.20;99.90
5248;DHT22;2644;52.420;13.580;2022-09-09T03:50:35;13.20;99.90
5248;DHT22;2644;52.420;13.580;2022-09-09T03:51:38;13.20;99.90
5248;DHT22;2644;52.420;13.580;2022-09-09T03:52:41;13.20;99.90
5248;DHT22;2644;52.420;13.580;2022-09-09T03:53:52;13.20;99.90
5248;DHT22;2644;52.420;13.580;2022-09-09T03:54:58;13.20;99.90
5248;DHT22;2644;52.420;13.580;2022-09-09T03:56:02;13.20;99.90
5248;DHT22;2644;52.420;13.580;2022-09-09T03:57:05;13.20;99.90
5248;DHT22;2644;52.420;13.580;2022-09-09T03:58:08;13.20;99.90
5248;DHT22;2644;52.420;13.580;2022-09-09T03:59:10;13.20;99.90
5248;DHT22;2644;52.420;13.580;2022-09-09T04:00:15;13.20;99.90
5248;DHT22;2644;52.420;13.580;2022-09-09T04:01:17;13.10;99.90
5248;DHT22;2644;52.420;13.580;2022-09-09T04:02:21;13.10;99.90
5248;DHT22;2644;52.420;13.580;2022-09-09T04:03:24;13.20;99.90
5248;DHT22;2644;52.420;13.580;2022-09-09T04:04:29;13.20;99.90
5248;DHT22;2644;52.420;13.580;2022-09-09T04:05:32;13.20;99.90
5248;DHT22;2644;52.420;13.580;2022-09-09T04:06:35;13.20;99.90
5248;DHT22;2644;52.420;13.580;2022-09-09T04:07:37;13.20;99.90
5248;DHT22;2644;52.420;13.580;2022-09-09T04:08:41;13.10;99.90
5248;DHT22;2644;52.420;13.580;2022-09-09T04:09:43;13.10;99.90
5248;DHT22;2644;52.420;13.580;2022-09-09T04:10:48;13.10;99.90
5248;DHT22;2644;52.420;13.580;2022-09-09T04:11:52;13.10;99.90
5248;DHT22;2644;52.420;13.580;2022-09-09T04:12:56;13.10;99.90
5248;DHT22;2644;52.420;13.580;2022-09-09T04:13:58;13.10;99.90
5248;DHT22;2644;52.420;13.580;2022-09-09T04:15:03;13.10;99.90
5248;DHT22;2644;52.420;13.580;2022-09-09T04:16:09;13.10;99.90
5248;DHT22;2644;52.420;13.580;2022-09-09T04:17:13;13.10;99.90
5248;DHT22;2644;52.420;13.580;2022-09-09T04:18:15;13.10;99.90
5248;DHT22;2644;52.420;13.580;2022-09-09T04:19:21;13.10;99.90
5248;DHT22;2644;52.420;13.580;2022-09-09T04:20:24;13.10;99.90
5248;DHT22;2644;52.420;13.580;2022-09-09T04:21:27;13.10;99.90
5248;DHT22;2644;52.420;13.580;2022-09-09T04:22:29;13.10;99.90
5248;DHT22;2644;52.420;13.580;2022-09-09T04:23:33;13.10;99.90
5248;DHT22;2644;52.420;13.580;2022-09-09T04:24:35;13.10;99.90
5248;DHT22;2644;52.420;13.580;2022-09-09T04:25:43;13.10;99.90
5248;DHT22;2644;52.420;13.580;2022-09-09T04:26:46;13.00;99.90
5248;DHT22;2644;52.420;13.580;2022-09-09T04:27:53;13.10;99.90
5248;DHT22;2644;52.420;13.580;2022-09-09T04:28:56;13.10;99.90
5248;DHT22;2644;52.420;13.580;2022-09-09T04:29:59;13.10;99.90
5248;DHT22;2644;52.420;13.580;2022-09-09T04:31:07;13.00;99.90
5248;DHT22;2644;52.420;13.580;2022-09-09T04:32:12;13.00;99.90
5248;DHT22;2644;52.420;13.580;2022-09-09T04:33:15;13.10;99.90
5248;DHT22;2644;52.420;13.580;2022-09-09T04:34:19;13.10;99.90
5248;DHT22;2644;52.420;13.580;2022-09-09T04:35:21;13.10;99.90
5248;DHT22;2644;52.420;13.580;2022-09-09T04:36:24;13.00;99.90
5248;DHT22;2644;52.420;13.580;2022-09-09T04:37:32;13.00;99.90
5248;DHT22;2644;52.420;13.580;2022-09-09T04:38:35;13.10;99.90
5248;DHT22;2644;52.420;13.580;2022-09-09T04:39:38;13.10;99.90
5248;DHT22;2644;52.420;13.580;2022-09-09T04:40:42;13.10;99.90
5248;DHT22;2644;52.420;13.580;2022-09-09T04:41:45;13.10;99.90
5248;DHT22;2644;52.420;13.580;2022-09-09T04:42:48;13.10;99.90
5248;DHT22;2644;52.420;13.580;2022-09-09T04:43:52;13.10;99.90
5248;DHT22;2644;52.420;13.580;2022-09-09T04:44:56;13.10;99.90
5248;DHT22;2644;52.420;13.580;2022-09-09T04:45:58;13.10;99.90
5248;DHT22;2644;52.420;13.580;2022-09-09T04:47:03;13.10;99.90
5248;DHT22;2644;52.420;13.580;2022-09-09T04:48:06;13.10;99.90
5248;DHT22;2644;52.420;13.580;2022-09-09T04:49:09;13.10;99.90
5248;DHT22;2644;52.420;13.580;2022-09-09T04:50:16;13.00;99.90
5248;DHT22;2644;52.420;13.580;2022-09-09T04:51:21;13.00;99.90
5248;DHT22;2644;52.420;13.580;2022-09-09T04:52:24;13.10;99.90
5248;DHT22;2644;52.420;13.580;2022-09-09T04:53:27;13.10;99.90
5248;DHT22;2644;52.420;13.580;2022-09-09T04:54:29;13.10;99.90
5248;DHT22;2644;52.420;13.580;2022-09-09T04:55:33;13.10;99.90
5248;DHT22;2644;52.420;13.580;2022-09-09T04:56:35;13.10;99.90
5248;DHT22;2644;52.420;13.580;2022-09-09T04:57:38;13.10;99.90
5248;DHT22;2644;52.420;13.580;2022-09-09T04:58:41;13.10;99.90
5248;DHT22;2644;52.420;13.580;2022-09-09T04:59:44;13.10;99.90
5248;DHT22;2644;52.420;13.580;2022-09-09T05:00:47;13.20;99.90
5248;DHT22;2644;52.420;13.580;2022-09-09T05:01:50;13.20;99.90
5248;DHT22;2644;52.420;13.580;2022-09-09T05:02:54;13.10;99.90
5248;DHT22;2644;52.420;13.580;2022-09-09T05:03:57;13.20;99.90
5248;DHT22;2644;52.420;13.580;2022-09-09T05:04:59;13.20;99.90
5248;DHT22;2644;52.420;13.580;2022-09-09T05:06:04;13.20;99.90
5248;DHT22;2644;52.420;13.580;2022-09-09T05:07:07;13.20;99.90
5248;DHT22;2644;52.420;13.580;2022-09-09T05:08:11;13.30;99.90
5248;DHT22;2644;52.420;13.580;2022-09-09T05:09:13;13.30;99.90
5248;DHT22;2644;52.420;13.580;2022-09-09T05:10:18;13.30;99.90
5248;DHT22;2644;52.420;13.580;2022-09-09T05:11:25;13.30;99.90
5248;DHT22;2644;52.420;13.580;2022-09-09T05:12:30;13.30;99.90
5248;DHT22;2644;52.420;13.580;2022-09-09T05:13:33;13.30;99.90
5248;DHT22;2644;52.420;13.580;2022-09-09T05:14:40;13.40;99.90
5248;DHT22;2644;52.420;13.580;2022-09-09T05:15:51;13.40;99.90
5248;DHT22;2644;52.420;13.580;2022-09-09T05:16:53;13.40;99.90
5248;DHT22;2644;52.420;13.580;2022-09-09T05:18:00;13.40;99.90
5248;DHT22;2644;52.420;13.580;2022-09-09T05:19:04;13.50;99.90
5248;DHT22;2644;52.420;13.580;2022-09-09T05:20:24;13.50;99.90
5248;DHT22;2644;52.420;13.580;2022-09-09T05:21:27;13.50;99.90
5248;DHT22;2644;52.420;13.580;2022-09-09T05:22:30;13.50;99.90
5248;DHT22;2644;52.420;13.580;2022-09-09T05:23:33;13.60;99.90
5248;DHT22;2644;52.420;13.580;2022-09-09T05:24:35;13.60;99.90
5248;DHT22;2644;52.420;13.580;2022-09-09T05:25:38;13.60;99.90
5248;DHT22;2644;52.420;13.580;2022-09-09T05:26:42;13.60;99.90
5248;DHT22;2644;52.420;13.580;2022-09-09T05:27:45;13.60;99.90
5248;DHT22;2644;52.420;13.580;2022-09-09T05:28:48;13.70;99.90
5248;DHT22;2644;52.420;13.580;2022-09-09T05:29:52;13.70;99.90
5248;DHT22;2644;52.420;13.580;2022-09-09T05:30:58;13.70;99.90
5248;DHT22;2644;52.420;13.580;2022-09-09T05:32:04;13.80;99.90
5248;DHT22;2644;52.420;13.580;2022-09-09T05:33:08;13.80;99.90
5248;DHT22;2644;52.420;13.580;2022-09-09T05:34:12;13.90;99.90
5248;DHT22;2644;52.420;13.580;2022-09-09T05:35:14;13.90;99.90
5248;DHT22;2644;52.420;13.580;2022-09-09T05:36:19;14.00;99.90
5248;DHT22;2644;52.420;13.580;2022-09-09T05:37:26;14.00;99.90
5248;DHT22;2644;52.420;13.580;2022-09-09T05:38:29;14.00;99.90
5248;DHT22;2644;52.420;13.580;2022-09-09T05:39:32;14.10;99.90
5248;DHT22;2644;52.420;13.580;2022-09-09T05:40:34;14.10;99.90
5248;DHT22;2644;52.420;13.580;2022-09-09T05:41:38;14.20;99.90
5248;DHT22;2644;52.420;13.580;2022-09-09T05:42:40;14.20;99.90
5248;DHT22;2644;52.420;13.580;2022-09-09T05:43:44;14.30;99.90
5248;DHT22;2644;52.420;13.580;2022-09-09T05:44:47;14.30;99.90
5248;DHT22;2644;52.420;13.580;2022-09-09T05:45:59;14.30;99.90
5248;DHT22;2644;52.420;13.580;2022-09-09T05:47:04;14.30;99.90
5248;DHT22;2644;52.420;13.580;2022-09-09T05:48:10;14.40;99.90
5248;DHT22;2644;52.420;13.580;2022-09-09T05:49:12;14.40;99.90
5248;DHT22;2644;52.420;13.580;2022-09-09T05:50:18;14.40;99.90
5248;DHT22;2644;52.420;13.580;2022-09-09T05:51:21;14.40;99.90
5248;DHT22;2644;52.420;13.580;2022-09-09T05:52:26;14.40;99.90
5248;DHT22;2644;52.420;13.580;2022-09-09T05:53:30;14.50;99.90
5248;DHT22;2644;52.420;13.580;2022-09-09T05:54:36;14.50;99.90
5248;DHT22;2644;52.420;13.580;2022-09-09T05:55:39;14.50;99.90
5248;DHT22;2644;52.420;13.580;2022-09-09T05:56:45;14.60;99.90
5248;DHT22;2644;52.420;13.580;2022-09-09T05:57:52;14.60;99.90
5248;DHT22;2644;52.420;13.580;2022-09-09T05:58:56;14.60;99.90
5248;DHT22;2644;52.420;13.580;2022-09-09T05:59:58;14.60;99.90
5248;DHT22;2644;52.420;13.580;2022-09-09T06:01:05;14.70;99.90
5248;DHT22;2644;52.420;13.580;2022-09-09T06:02:08;14.60;99.90
5248;DHT22;2644;52.420;13.580;2022-09-09T06:03:13;14.70;99.90
5248;DHT22;2644;52.420;13.580;2022-09-09T06:04:16;14.70;99.90
5248;DHT22;2644;52.420;13.580;2022-09-09T06:05:19;14.70;99.90
5248;DHT22;2644;52.420;13.580;2022-09-09T06:06:23;14.70;99.90
5248;DHT22;2644;52.420;13.580;2022-09-09T06:07:29;14.80;99.90
5248;DHT22;2644;52.420;13.580;2022-09-09T06:08:32;14.80;99.90
5248;DHT22;2644;52.420;13.580;2022-09-09T06:09:35;14.80;99.90
5248;DHT22;2644;52.420;13.580;2022-09-09T06:10:38;14.90;99.90
5248;DHT22;2644;52.420;13.580;2022-09-09T06:11:41;14.90;99.90
5248;DHT22;2644;52.420;13.580;2022-09-09T06:12:45;14.90;99.90
5248;DHT22;2644;52.420;13.580;2022-09-09T06:13:47;14.90;99.90
5248;DHT22;2644;52.420;13.580;2022-09-09T06:14:53;14.90;99.90
5248;DHT22;2644;52.420;13.580;2022-09-09T06:15:55;15.00;99.90
5248;DHT22;2644;52.420;13.580;2022-09-09T06:16:58;15.00;99.90
5248;DHT22;2644;52.420;13.580;2022-09-09T06:18:03;15.00;99.90
5248;DHT22;2644;52.420;13.580;2022-09-09T06:19:08;15.00;99.90
5248;DHT22;2644;52.420;13.580;2022-09-09T06:20:10;15.10;99.90
5248;DHT22;2644;52.420;13.580;2022-09-09T06:21:15;15.10;99.90
5248;DHT22;2644;52.420;13.580;2022-09-09T06:22:19;15.20;99.90
5248;DHT22;2644;52.420;13.580;2022-09-09T06:23:22;15.30;99.90
5248;DHT22;2644;52.420;13.580;2022-09-09T06:24:24;15.30;99.90
5248;DHT22;2644;52.420;13.580;2022-09-09T06:25:28;15.30;99.90
5248;DHT22;2644;52.420;13.580;2022-09-09T06:26:31;15.50;99.90
5248;DHT22;2644;52.420;13.580;2022-09-09T06:27:36;15.60;99.90
5248;DHT22;2644;52.420;13.580;2022-09-09T06:28:39;15.60;99.90
5248;DHT22;2644;52.420;13.580;2022-09-09T06:29:43;15.70;99.90
5248;DHT22;2644;52.420;13.580;2022-09-09T06:30:47;15.80;99.90
5248;DHT22;2644;52.420;13.580;2022-09-09T06:31:49;15.90;99.90
5248;DHT22;2644;52.420;13.580;2022-09-09T06:32:56;16.00;99.90
5248;DHT22;2644;52.420;13.580;2022-09-09T06:34:01;16.20;99.90
5248;DHT22;2644;52.420;13.580;2022-09-09T06:35:06;16.50;99.90
5248;DHT22;2644;52.420;13.580;2022-09-09T06:36:11;16.70;99.90
5248;DHT22;2644;52.420;13.580;2022-09-09T06:37:14;17.00;99.90
5248;DHT22;2644;52.420;13.580;2022-09-09T06:38:22;17.40;99.90
5248;DHT22;2644;52.420;13.580;2022-09-09T06:39:25;17.90;99.90
5248;DHT22;2644;52.420;13.580;2022-09-09T06:40:29;18.30;99.90
5248;DHT22;2644;52.420;13.580;2022-09-09T06:41:32;18.60;99.90
5248;DHT22;2644;52.420;13.580;2022-09-09T06:42:37;18.90;99.90
5248;DHT22;2644;52.420;13.580;2022-09-09T06:43:56;19.30;99.90
5248;DHT22;2644;52.420;13.580;2022-09-09T06:45:08;19.80;99.90
5248;DHT22;2644;52.420;13.580;2022-09-09T06:46:21;20.10;99.90
5248;DHT22;2644;52.420;13.580;2022-09-09T06:47:24;20.40;99.90
5248;DHT22;2644;52.420;13.580;2022-09-09T06:48:31;20.60;99.90
5248;DHT22;2644;52.420;13.580;2022-09-09T06:49:35;20.90;99.90
5248;DHT22;2644;52.420;13.580;2022-09-09T06:50:42;21.20;99.90
5248;DHT22;2644;52.420;13.580;2022-09-09T06:51:44;21.60;99.90
5248;DHT22;2644;52.420;13.580;2022-09-09T06:52:48;21.80;99.90
5248;DHT22;2644;52.420;13.580;2022-09-09T06:53:52;21.90;99.90
5248;DHT22;2644;52.420;13.580;2022-09-09T06:54:57;22.10;99.90
5248;DHT22;2644;52.420;13.580;2022-09-09T06:56:01;22.10;99.90
5248;DHT22;2644;52.420;13.580;2022-09-09T06:57:05;22.10;99.90
5248;DHT22;2644;52.420;13.580;2022-09-09T06:58:29;22.30;99.90
5248;DHT22;2644;52.420;13.580;2022-09-09T06:59:34;22.30;99.90
5248;DHT22;2644;52.420;13.580;2022-09-09T07:00:37;22.50;99.90
5248;DHT22;2644;52.420;13.580;2022-09-09T07:01:42;22.70;99.90
5248;DHT22;2644;52.420;13.580;2022-09-09T07:02:47;23.00;99.90
5248;DHT22;2644;52.420;13.580;2022-09-09T07:03:51;23.20;99.90
5248;DHT22;2644;52.420;13.580;2022-09-09T07:04:54;23.50;99.90
5248;DHT22;2644;52.420;13.580;2022-09-09T07:05:58;23.50;99.90
5248;DHT22;2644;52.420;13.580;2022-09-09T07:07:02;23.70;99.90
5248;DHT22;2644;52.420;13.580;2022-09-09T07:08:05;23.80;99.90